Time;durP1;ratioP1;P1;durP2;ratioP2;P2;SDS_P1;SDS_P2;PMS_P1;PMS_P2;Temp;Humidity;BMP_temperature;BMP_pressure;BME280_temperature;BME280_humidity;BME280_pressure;Samples;Min_cycle;Max_cycle;Signal;HPM_P1;HPM_P2
2022/07/30 00:02:15;;;;;;;7.72;7.20;;;17.00;99.90;;;;;;5048316;28;20029;-59
2022/07/30 00:04:41;;;;;;;7.43;6.82;;;17.00;99.90;;;;;;5049148;28;20029;-57
2022/07/30 00:07:07;;;;;;;9.15;8.23;;;17.00;99.90;;;;;;5046658;28;20040;-58
2022/07/30 00:09:33;;;;;;;8.77;7.97;;;17.00;99.90;;;;;;5048354;28;20017;-60
2022/07/30 00:11:59;;;;;;;10.48;9.50;;;17.00;99.90;;;;;;5054937;28;20025;-61
2022/07/30 00:14:25;;;;;;;10.40;9.32;;;16.90;99.90;;;;;;5054594;28;20032;-58
2022/07/30 00:16:51;;;;;;;8.90;8.05;;;16.90;99.90;;;;;;5054901;28;20381;-57
2022/07/30 00:19:17;;;;;;;9.25;8.57;;;16.90;99.90;;;;;;5054412;28;20041;-57
2022/07/30 00:21:42;;;;;;;11.13;9.18;;;16.90;99.90;;;;;;5054827;28;20028;-59
2022/07/30 00:24:09;;;;;;;10.55;9.65;;;16.90;99.90;;;;;;5053507;28;20111;-58
2022/07/30 00:26:34;;;;;;;9.32;8.65;;;16.90;99.90;;;;;;5054795;28;20560;-60
2022/07/30 00:29:00;;;;;;;14.35;8.40;;;16.90;99.90;;;;;;5055110;28;20021;-61
2022/07/30 00:31:26;;;;;;;9.25;8.32;;;16.90;99.90;;;;;;5054713;28;20475;-58
2022/07/30 00:33:51;;;;;;;8.80;8.00;;;17.00;99.90;;;;;;5053996;28;20035;-58
2022/07/30 00:36:17;;;;;;;9.07;8.38;;;17.00;99.90;;;;;;5053920;28;20791;-57
2022/07/30 00:38:43;;;;;;;8.27;7.68;;;17.00;99.90;;;;;;5053291;28;20036;-59
2022/07/30 00:41:08;;;;;;;8.50;7.78;;;16.90;99.90;;;;;;5054963;28;20036;-58
2022/07/30 00:43:34;;;;;;;8.07;7.47;;;16.90;99.90;;;;;;5054825;28;20017;-59
2022/07/30 00:46:00;;;;;;;7.63;7.13;;;16.90;99.90;;;;;;5054529;28;20025;-59
2022/07/30 00:48:25;;;;;;;8.63;7.93;;;16.90;99.90;;;;;;5054108;28;20033;-57
2022/07/30 00:50:51;;;;;;;9.20;8.27;;;16.90;99.90;;;;;;5054737;28;20412;-58
2022/07/30 00:53:17;;;;;;;8.63;8.13;;;16.90;99.90;;;;;;5054527;28;20029;-61
2022/07/30 00:55:43;;;;;;;7.72;7.18;;;16.80;99.90;;;;;;5054310;28;20052;-59
2022/07/30 00:58:08;;;;;;;8.95;8.07;;;16.90;99.90;;;;;;5054586;28;20029;-59
2022/07/30 01:00:34;;;;;;;9.25;8.48;;;16.80;99.90;;;;;;5052217;28;20039;-58
2022/07/30 01:03:00;;;;;;;8.65;8.10;;;16.80;99.90;;;;;;5054867;28;20032;-58
2022/07/30 01:05:25;;;;;;;10.25;9.35;;;16.80;99.90;;;;;;5054190;28;20377;-61
2022/07/30 01:07:51;;;;;;;9.52;8.82;;;16.80;99.90;;;;;;5053865;28;20028;-57
2022/07/30 01:10:17;;;;;;;9.60;8.68;;;16.80;99.90;;;;;;5054326;28;20043;-59
2022/07/30 01:12:44;;;;;;;9.45;8.75;;;16.80;99.90;;;;;;5053953;28;20440;-58
2022/07/30 01:15:10;;;;;;;16.63;10.75;;;16.80;99.90;;;;;;5054474;28;20496;-59
2022/07/30 01:17:37;;;;;;;10.77;9.98;;;16.70;99.90;;;;;;5053769;28;20079;-57
2022/07/30 01:20:12;;;;;;;10.95;10.07;;;16.70;99.90;;;;;;5053142;28;20025;-59
2022/07/30 01:23:02;;;;;;;11.10;10.20;;;16.60;99.90;;;;;;5050939;28;20033;-59
2022/07/30 01:25:30;;;;;;;11.85;10.90;;;16.50;99.90;;;;;;5051065;28;20056;-58
2022/07/30 01:28:18;;;;;;;11.82;10.73;;;16.40;99.90;;;;;;5050661;28;20047;-61
2022/07/30 01:30:45;;;;;;;11.88;10.90;;;16.40;99.90;;;;;;5050255;28;20032;-59
2022/07/30 01:33:13;;;;;;;13.18;12.18;;;16.30;99.90;;;;;;5049612;28;20025;-57
2022/07/30 01:35:40;;;;;;;12.88;12.00;;;16.20;99.90;;;;;;5049236;28;20108;-57
2022/07/30 01:38:08;;;;;;;14.23;12.15;;;16.20;99.90;;;;;;5050480;28;20725;-59
2022/07/30 01:40:36;;;;;;;11.75;10.77;;;16.20;99.90;;;;;;5050507;28;20420;-57
2022/07/30 01:43:03;;;;;;;11.30;10.40;;;16.10;99.90;;;;;;5050833;28;20025;-58
2022/07/30 01:45:31;;;;;;;12.85;11.43;;;16.10;99.90;;;;;;5050453;28;20051;-59
2022/07/30 01:47:59;;;;;;;815.20;38.70;;;16.00;99.90;;;;;;5049570;28;20041;-59
2022/07/30 01:50:27;;;;;;;783.63;34.13;;;16.00;99.90;;;;;;5050336;28;20559;-59
2022/07/30 01:52:54;;;;;;;504.85;23.73;;;16.00;99.90;;;;;;5050036;28;20025;-59
2022/07/30 01:55:26;;;;;;;201.68;15.45;;;16.00;99.90;;;;;;5051354;28;20088;-59
2022/07/30 01:57:54;;;;;;;451.85;21.20;;;15.90;99.90;;;;;;5031669;28;20374;-59
2022/07/30 02:00:23;;;;;;;447.30;19.25;;;15.90;99.90;;;;;;5050373;28;20031;-57
2022/07/30 02:02:49;;;;;;;521.78;22.98;;;15.80;99.90;;;;;;5050600;28;20108;-57
2022/07/30 02:05:15;;;;;;;524.42;25.17;;;15.70;99.90;;;;;;5049913;28;20105;-60
2022/07/30 02:07:50;;;;;;;418.88;24.15;;;15.70;99.90;;;;;;5050511;28;20044;-58
2022/07/30 02:10:32;;;;;;;527.35;25.65;;;15.70;99.90;;;;;;5048782;28;20025;-59
2022/07/30 02:13:00;;;;;;;369.10;24.80;;;15.80;99.90;;;;;;5050076;28;20021;-57
2022/07/30 02:15:39;;;;;;;117.00;19.20;;;15.80;99.90;;;;;;5049161;28;20029;-57
2022/07/30 02:18:37;;;;;;;71.75;19.60;;;15.80;99.90;;;;;;5048960;28;20025;-60
2022/07/30 02:21:05;;;;;;;76.05;17.10;;;15.80;99.90;;;;;;5048560;28;20079;-59
2022/07/30 02:23:38;;;;;;;65.20;16.88;;;15.80;99.90;;;;;;5049993;28;20117;-60
2022/07/30 02:26:07;;;;;;;158.48;12.32;;;15.80;99.90;;;;;;5050106;28;20443;-58
2022/07/30 02:28:37;;;;;;;120.18;13.45;;;15.80;99.90;;;;;;5049160;28;20073;-57
2022/07/30 02:31:04;;;;;;;44.35;10.38;;;15.70;99.90;;;;;;5050294;28;20025;-57
2022/07/30 02:33:36;;;;;;;31.08;9.02;;;15.70;99.90;;;;;;5049072;28;20029;-58
2022/07/30 02:36:04;;;;;;;149.93;13.27;;;15.70;99.90;;;;;;5049158;28;20017;-58
2022/07/30 02:38:31;;;;;;;99.05;11.43;;;15.70;99.90;;;;;;5048383;28;20083;-61
2022/07/30 02:40:58;;;;;;;70.85;12.18;;;15.70;99.90;;;;;;5049604;28;20013;-60
2022/07/30 02:43:26;;;;;;;90.15;13.38;;;15.80;99.90;;;;;;5049898;28;20901;-59
2022/07/30 02:45:54;;;;;;;144.60;17.52;;;15.80;99.90;;;;;;5048857;28;20040;-58
2022/07/30 02:48:22;;;;;;;125.07;16.77;;;15.80;99.90;;;;;;5049331;28;20044;-58
2022/07/30 02:50:50;;;;;;;197.20;20.58;;;15.90;99.90;;;;;;5047880;28;20448;-58
2022/07/30 02:53:18;;;;;;;248.00;20.77;;;15.90;99.90;;;;;;5048070;28;20063;-57
2022/07/30 02:55:46;;;;;;;211.80;19.73;;;15.90;99.90;;;;;;5049508;28;20045;-57
2022/07/30 02:58:17;;;;;;;253.50;22.33;;;16.00;99.90;;;;;;5046947;28;20639;-58
2022/07/30 03:00:44;;;;;;;237.35;21.92;;;16.00;99.90;;;;;;5049740;28;20059;-58
2022/07/30 03:03:12;;;;;;;118.22;18.58;;;16.10;99.90;;;;;;5049048;28;20040;-58
2022/07/30 03:05:39;;;;;;;295.23;24.65;;;16.10;99.90;;;;;;5049632;28;20025;-58
2022/07/30 03:08:07;;;;;;;65.05;17.60;;;16.10;99.90;;;;;;5047411;28;20488;-58
2022/07/30 03:10:34;;;;;;;179.43;20.20;;;16.20;99.90;;;;;;5049389;28;20085;-58
2022/07/30 03:13:03;;;;;;;123.78;18.75;;;16.20;99.90;;;;;;5048672;28;20522;-58
2022/07/30 03:15:29;;;;;;;125.13;18.63;;;16.30;99.90;;;;;;5048241;28;20401;-57
2022/07/30 03:17:56;;;;;;;147.75;20.90;;;16.30;99.90;;;;;;5048831;28;20029;-58
2022/07/30 03:20:25;;;;;;;121.78;18.13;;;16.30;99.90;;;;;;5048890;28;20725;-59
2022/07/30 03:22:53;;;;;;;157.85;18.33;;;16.30;99.90;;;;;;5049523;28;20024;-58
2022/07/30 03:25:23;;;;;;;147.43;18.85;;;16.40;99.90;;;;;;5049046;28;20087;-57
2022/07/30 03:27:50;;;;;;;18.08;14.52;;;16.40;99.90;;;;;;5047919;28;20033;-57
2022/07/30 03:30:16;;;;;;;18.67;14.13;;;16.40;99.90;;;;;;5048577;28;20029;-58
2022/07/30 03:32:42;;;;;;;16.95;15.45;;;16.50;99.90;;;;;;5048423;28;20036;-58
2022/07/30 03:35:09;;;;;;;16.70;15.15;;;16.50;99.90;;;;;;5048175;28;20040;-58
2022/07/30 03:37:38;;;;;;;15.45;14.07;;;16.50;99.90;;;;;;5046071;28;20037;-58
2022/07/30 03:40:05;;;;;;;13.40;12.35;;;16.50;99.90;;;;;;5046679;28;20087;-57
2022/07/30 03:42:33;;;;;;;12.48;11.57;;;16.50;99.90;;;;;;5048484;28;20043;-58
2022/07/30 03:45:02;;;;;;;14.93;13.82;;;16.40;99.90;;;;;;5047927;28;20035;-59
2022/07/30 03:47:31;;;;;;;12.13;11.10;;;16.50;99.90;;;;;;5048075;28;20095;-58
2022/07/30 03:50:00;;;;;;;12.50;11.68;;;16.50;99.90;;;;;;5047116;28;20025;-59
2022/07/30 03:52:27;;;;;;;13.20;12.10;;;16.50;99.90;;;;;;5048173;28;20091;-62
2022/07/30 03:54:53;;;;;;;10.75;10.05;;;16.50;99.90;;;;;;5047787;28;20047;-58
2022/07/30 03:57:19;;;;;;;10.43;9.73;;;16.50;99.90;;;;;;5047761;28;20079;-59
2022/07/30 03:59:45;;;;;;;11.27;10.40;;;16.50;99.90;;;;;;5047556;28;20021;-59
2022/07/30 04:02:11;;;;;;;10.50;9.80;;;16.50;99.90;;;;;;5047581;28;20424;-59
2022/07/30 04:04:41;;;;;;;11.45;10.70;;;16.60;99.90;;;;;;5046610;28;20056;-59
2022/07/30 04:07:07;;;;;;;11.30;10.30;;;16.60;99.90;;;;;;5044332;28;20037;-59
2022/07/30 04:09:33;;;;;;;12.98;12.05;;;16.60;99.90;;;;;;5047809;28;20032;-59
2022/07/30 04:11:59;;;;;;;13.30;12.32;;;16.60;99.90;;;;;;5046646;28;20029;-59
2022/07/30 04:14:24;;;;;;;13.68;12.43;;;16.70;99.90;;;;;;5046509;28;20067;-59
2022/07/30 04:17:02;;;;;;;12.75;11.95;;;16.70;99.90;;;;;;5048465;28;20048;-60
2022/07/30 04:19:35;;;;;;;12.48;11.30;;;16.70;99.90;;;;;;5047952;28;20041;-63
2022/07/30 04:22:03;;;;;;;11.38;10.45;;;16.80;99.90;;;;;;5048109;28;20450;-62
2022/07/30 04:24:30;;;;;;;13.70;12.70;;;16.80;99.90;;;;;;5047766;28;20116;-61
2022/07/30 04:26:58;;;;;;;12.93;11.80;;;16.80;99.90;;;;;;5048244;28;20029;-61
2022/07/30 04:29:23;;;;;;;13.48;12.55;;;16.80;99.90;;;;;;5047709;28;20392;-62
2022/07/30 04:31:50;;;;;;;12.65;11.85;;;16.80;99.90;;;;;;5048761;28;20025;-62
2022/07/30 04:34:16;;;;;;;13.23;12.32;;;16.80;99.90;;;;;;5048429;28;20029;-58
2022/07/30 04:36:42;;;;;;;12.18;11.27;;;16.90;99.90;;;;;;5047216;28;20128;-59
2022/07/30 04:39:08;;;;;;;11.00;10.30;;;17.00;99.90;;;;;;5047905;28;20037;-59
2022/07/30 04:41:34;;;;;;;11.85;11.05;;;17.00;99.90;;;;;;5047687;28;20500;-59
2022/07/30 04:44:00;;;;;;;12.20;11.32;;;17.00;99.90;;;;;;5048107;28;20117;-58
2022/07/30 04:46:26;;;;;;;11.88;10.73;;;17.10;99.90;;;;;;5048331;28;20389;-59
2022/07/30 04:48:51;;;;;;;11.95;11.07;;;17.10;99.90;;;;;;5047342;28;20032;-60
2022/07/30 04:51:23;;;;;;;12.00;10.90;;;17.10;99.90;;;;;;5048186;28;20040;-60
2022/07/30 04:53:51;;;;;;;12.20;11.23;;;17.10;99.90;;;;;;5047475;28;20033;-59
2022/07/30 04:56:19;;;;;;;12.25;11.35;;;17.10;99.90;;;;;;5047899;28;20037;-59
2022/07/30 04:58:45;;;;;;;11.98;10.98;;;17.20;99.90;;;;;;5051286;28;20048;-59
2022/07/30 05:01:12;;;;;;;11.55;10.68;;;17.20;99.90;;;;;;5051409;28;20068;-59
2022/07/30 05:03:39;;;;;;;12.45;11.55;;;17.20;99.90;;;;;;5033940;28;20049;-60
2022/07/30 05:06:06;;;;;;;12.30;11.23;;;17.20;99.90;;;;;;5050814;28;20028;-61
2022/07/30 05:08:32;;;;;;;12.38;11.48;;;17.30;99.90;;;;;;5052138;28;20120;-59
2022/07/30 05:10:59;;;;;;;11.30;10.25;;;17.30;99.90;;;;;;5052032;28;20017;-60
2022/07/30 05:13:24;;;;;;;11.77;10.82;;;17.30;99.90;;;;;;5052503;28;20108;-59
2022/07/30 05:15:50;;;;;;;10.30;9.60;;;17.30;99.90;;;;;;5050485;28;20111;-60
2022/07/30 05:18:16;;;;;;;9.68;8.98;;;17.30;99.90;;;;;;5051774;28;20083;-60
2022/07/30 05:20:42;;;;;;;8.68;8.07;;;17.30;99.90;;;;;;5051414;28;20075;-62
2022/07/30 05:23:07;;;;;;;8.85;8.25;;;17.40;99.90;;;;;;5050997;28;20104;-58
2022/07/30 05:25:33;;;;;;;9.50;8.73;;;17.50;99.90;;;;;;5052224;28;20055;-59
2022/07/30 05:27:59;;;;;;;7.75;7.22;;;17.50;99.90;;;;;;5050119;28;20032;-59
2022/07/30 05:30:24;;;;;;;8.60;7.90;;;17.50;99.90;;;;;;5050313;28;20025;-60
2022/07/30 05:32:50;;;;;;;8.23;7.63;;;17.60;99.90;;;;;;5050254;28;20021;-63
2022/07/30 05:35:16;;;;;;;7.18;6.68;;;17.60;99.90;;;;;;5050507;28;20031;-59
2022/07/30 05:37:41;;;;;;;8.48;7.85;;;17.70;99.90;;;;;;5048534;28;20061;-59
2022/07/30 05:40:08;;;;;;;9.05;8.45;;;17.80;99.90;;;;;;5048785;28;20025;-59
2022/07/30 05:42:34;;;;;;;8.00;7.50;;;17.90;99.90;;;;;;5033393;28;20025;-60
2022/07/30 05:44:59;;;;;;;7.78;7.28;;;17.90;99.90;;;;;;5050214;28;20040;-61
2022/07/30 05:47:25;;;;;;;8.25;7.65;;;17.90;99.90;;;;;;5050865;28;20429;-60
2022/07/30 05:49:51;;;;;;;8.77;8.18;;;18.00;99.90;;;;;;5051472;28;20029;-62
2022/07/30 05:52:18;;;;;;;8.07;7.53;;;18.00;99.90;;;;;;5050484;28;20041;-59
2022/07/30 05:54:44;;;;;;;7.53;7.03;;;18.10;99.90;;;;;;5050964;28;20123;-59
2022/07/30 05:57:09;;;;;;;9.40;8.80;;;18.10;99.90;;;;;;5050073;28;20040;-59
2022/07/30 05:59:36;;;;;;;9.40;8.52;;;18.30;99.90;;;;;;5050626;28;20044;-59
2022/07/30 06:02:03;;;;;;;8.63;8.05;;;18.40;99.90;;;;;;5049964;28;20103;-59
2022/07/30 06:04:29;;;;;;;7.57;7.07;;;19.00;99.90;;;;;;5051660;28;20036;-62
2022/07/30 06:06:54;;;;;;;6.65;6.15;;;20.20;99.90;;;;;;5050369;28;20033;-60
2022/07/30 06:09:20;;;;;;;5.75;5.35;;;21.20;99.90;;;;;;5049902;28;20032;-59
2022/07/30 06:11:46;;;;;;;5.20;4.90;;;22.00;99.90;;;;;;5050396;28;20033;-60
2022/07/30 06:14:12;;;;;;;4.75;4.45;;;22.50;99.90;;;;;;5049523;28;20032;-59
2022/07/30 06:16:37;;;;;;;4.40;4.10;;;23.50;99.90;;;;;;5051092;28;20037;-60
2022/07/30 06:19:03;;;;;;;3.97;3.60;;;24.00;99.90;;;;;;5049944;28;20021;-63
2022/07/30 06:21:29;;;;;;;4.10;3.80;;;23.80;99.90;;;;;;5050586;28;20392;-59
2022/07/30 06:23:54;;;;;;;4.38;4.05;;;23.10;99.90;;;;;;5050619;28;20037;-59
2022/07/30 06:26:20;;;;;;;4.47;4.15;;;22.50;99.90;;;;;;5049561;28;20037;-59
2022/07/30 06:28:46;;;;;;;4.70;4.30;;;22.00;99.90;;;;;;5050406;28;20021;-60
2022/07/30 06:31:11;;;;;;;5.40;5.05;;;21.60;99.90;;;;;;5049690;28;20519;-61
2022/07/30 06:33:37;;;;;;;4.95;4.55;;;21.20;99.90;;;;;;5050393;28;20037;-60
2022/07/30 06:36:03;;;;;;;5.07;4.65;;;21.20;99.90;;;;;;5049475;28;20636;-58
2022/07/30 06:38:29;;;;;;;5.93;4.53;;;21.20;99.90;;;;;;5064249;28;20104;-58
2022/07/30 06:40:55;;;;;;;4.43;4.03;;;21.80;99.90;;;;;;5050056;28;20021;-58
2022/07/30 06:43:20;;;;;;;3.67;3.42;;;22.90;99.90;;;;;;5049816;28;20021;-60
2022/07/30 06:45:46;;;;;;;4.20;3.90;;;24.40;99.90;;;;;;5049698;28;20041;-58
2022/07/30 06:48:12;;;;;;;3.35;3.15;;;25.70;99.90;;;;;;5049344;28;20087;-60
2022/07/30 06:50:38;;;;;;;4.25;3.17;;;26.80;99.90;;;;;;5049962;28;20115;-60
2022/07/30 06:53:03;;;;;;;3.60;2.90;;;27.70;99.90;;;;;;5049396;28;20041;-58
2022/07/30 06:55:29;;;;;;;3.47;3.25;;;28.20;91.00;;;;;;5050231;28;20025;-58
2022/07/30 06:57:55;;;;;;;4.03;3.60;;;28.10;91.00;;;;;;5049139;28;20021;-59
2022/07/30 07:00:20;;;;;;;4.20;3.60;;;28.00;90.40;;;;;;5049035;28;20358;-58
2022/07/30 07:02:46;;;;;;;3.80;3.42;;;27.60;95.30;;;;;;5049623;28;20056;-60
2022/07/30 07:05:12;;;;;;;3.75;3.55;;;27.40;96.50;;;;;;5049169;28;20455;-58
2022/07/30 07:07:39;;;;;;;3.70;3.50;;;27.00;99.90;;;;;;5049622;28;20032;-59
2022/07/30 07:10:05;;;;;;;3.30;3.10;;;26.80;97.00;;;;;;5048413;28;20024;-59
2022/07/30 07:12:30;;;;;;;4.15;3.85;;;26.50;99.90;;;;;;5049645;28;20104;-59
2022/07/30 07:14:56;;;;;;;4.15;3.80;;;26.50;99.90;;;;;;5049100;28;20417;-61
2022/07/30 07:17:22;;;;;;;3.92;3.60;;;27.10;99.00;;;;;;5047959;28;20025;-58
2022/07/30 07:19:47;;;;;;;3.38;3.10;;;28.30;91.20;;;;;;5048786;28;20045;-59
2022/07/30 07:22:13;;;;;;;3.65;3.38;;;30.00;78.80;;;;;;5047846;28;20029;-59
2022/07/30 07:24:39;;;;;;;2.80;2.60;;;30.80;66.70;;;;;;5049153;28;20076;-59
2022/07/30 07:27:06;;;;;;;3.63;3.33;;;30.50;65.20;;;;;;5047968;28;20029;-59
2022/07/30 07:29:32;;;;;;;4.13;3.53;;;29.20;69.20;;;;;;5049164;28;20112;-58
2022/07/30 07:31:57;;;;;;;4.38;3.70;;;28.40;76.40;;;;;;5048835;28;20115;-59
2022/07/30 07:34:23;;;;;;;4.50;4.20;;;27.70;88.60;;;;;;5046674;28;20036;-60
2022/07/30 07:36:49;;;;;;;5.35;4.95;;;27.10;93.70;;;;;;5048616;28;20435;-59
2022/07/30 07:39:15;;;;;;;4.72;4.43;;;26.70;96.40;;;;;;5047877;28;20037;-60
2022/07/30 07:41:40;;;;;;;4.95;4.57;;;27.10;99.40;;;;;;5048304;28;21082;-59
2022/07/30 07:44:06;;;;;;;5.28;4.88;;;27.20;91.40;;;;;;5048099;28;20025;-59
2022/07/30 07:46:32;;;;;;;5.07;4.63;;;27.10;92.60;;;;;;5048836;28;20047;-60
2022/07/30 07:48:58;;;;;;;5.10;4.60;;;26.70;94.60;;;;;;5048681;28;20108;-59
2022/07/30 07:51:23;;;;;;;5.13;4.47;;;27.40;95.70;;;;;;5048035;28;20018;-60
2022/07/30 07:53:49;;;;;;;5.30;4.90;;;28.10;85.50;;;;;;5048752;28;20036;-62
2022/07/30 07:56:15;;;;;;;5.00;4.60;;;29.60;72.20;;;;;;5046138;28;20041;-59
2022/07/30 07:58:40;;;;;;;4.97;4.43;;;30.90;65.30;;;;;;5048688;28;20032;-58
2022/07/30 08:01:06;;;;;;;11.35;4.45;;;31.40;60.70;;;;;;5046473;28;20071;-60
2022/07/30 08:03:32;;;;;;;3.90;3.60;;;31.90;60.00;;;;;;5048683;28;20022;-60
2022/07/30 08:05:57;;;;;;;3.80;3.50;;;32.00;58.40;;;;;;5045999;28;20488;-63
2022/07/30 08:08:23;;;;;;;3.80;3.60;;;31.50;58.60;;;;;;5048048;28;20029;-60
2022/07/30 08:10:49;;;;;;;3.42;3.22;;;31.20;59.80;;;;;;5048860;28;20024;-58
2022/07/30 08:13:15;;;;;;;3.92;3.72;;;31.60;59.40;;;;;;5047954;28;20021;-62
2022/07/30 08:15:41;;;;;;;3.20;3.00;;;32.10;58.30;;;;;;5048755;28;20033;-59
2022/07/30 08:18:07;;;;;;;3.42;3.00;;;33.30;56.30;;;;;;5047805;28;20068;-59
2022/07/30 08:20:34;;;;;;;5.68;3.35;;;33.50;55.50;;;;;;5048487;28;20477;-58
2022/07/30 08:23:00;;;;;;;3.25;3.05;;;34.30;53.10;;;;;;5047728;28;20655;-59
2022/07/30 08:25:27;;;;;;;3.60;3.33;;;34.40;51.90;;;;;;5048436;28;20021;-61
2022/07/30 08:27:53;;;;;;;3.38;3.08;;;34.10;51.40;;;;;;5047850;28;20053;-59
2022/07/30 08:30:19;;;;;;;3.40;2.97;;;34.50;51.80;;;;;;5047557;28;20056;-60
2022/07/30 08:32:45;;;;;;;2.80;2.60;;;34.40;51.60;;;;;;5051626;28;20029;-60
2022/07/30 08:35:11;;;;;;;3.45;3.17;;;33.90;52.00;;;;;;5051761;28;20488;-59
2022/07/30 08:37:39;;;;;;;2.85;2.65;;;33.80;53.00;;;;;;5051191;28;20025;-61
2022/07/30 08:40:06;;;;;;;3.03;2.83;;;33.50;53.20;;;;;;5050827;28;20033;-60
2022/07/30 08:42:34;;;;;;;3.78;2.83;;;33.30;53.20;;;;;;5052360;28;20025;-58
2022/07/30 08:44:59;;;;;;;3.10;2.88;;;32.60;54.70;;;;;;5050039;28;20112;-59
2022/07/30 08:47:32;;;;;;;2.95;2.50;;;31.70;56.40;;;;;;5051696;28;20112;-58
2022/07/30 08:50:04;;;;;;;3.03;2.78;;;31.00;56.40;;;;;;5051767;28;20021;-60
2022/07/30 08:52:36;;;;;;;4.13;2.50;;;30.90;58.60;;;;;;5050923;28;20025;-58
2022/07/30 08:55:04;;;;;;;3.70;2.95;;;30.70;58.50;;;;;;5051689;28;20039;-60
2022/07/30 08:57:32;;;;;;;3.30;2.50;;;30.10;57.80;;;;;;5050987;28;20017;-59
2022/07/30 08:59:58;;;;;;;2.90;2.70;;;29.70;59.60;;;;;;5050566;28;20087;-59
2022/07/30 09:02:24;;;;;;;4.53;2.90;;;29.50;60.70;;;;;;5051060;28;20025;-58
2022/07/30 09:04:50;;;;;;;3.15;2.85;;;29.30;61.10;;;;;;5051068;28;20044;-59
2022/07/30 09:07:16;;;;;;;3.03;2.83;;;28.60;64.10;;;;;;5050899;28;20068;-58
2022/07/30 09:09:42;;;;;;;3.15;2.85;;;28.10;65.60;;;;;;5051134;28;20025;-60
2022/07/30 09:12:33;;;;;;;3.35;2.63;;;27.60;67.20;;;;;;5051677;28;20037;-58
2022/07/30 09:15:04;;;;;;;2.88;2.67;;;27.50;70.30;;;;;;5049843;28;20524;-60
2022/07/30 09:17:50;;;;;;;4.10;2.92;;;27.70;75.30;;;;;;5050230;28;20485;-58
2022/07/30 09:20:18;;;;;;;4.07;2.85;;;27.90;72.50;;;;;;5038658;28;20031;-59
2022/07/30 09:22:52;;;;;;;3.08;2.85;;;28.00;70.70;;;;;;5034020;28;20595;-61
2022/07/30 09:25:33;;;;;;;4.40;2.95;;;28.10;69.20;;;;;;5051222;28;20041;-60
2022/07/30 09:27:59;;;;;;;3.20;2.83;;;28.10;72.30;;;;;;5049661;28;20029;-61
2022/07/30 09:30:25;;;;;;;2.50;2.30;;;28.40;68.90;;;;;;5049955;28;20770;-59
2022/07/30 09:32:53;;;;;;;3.80;3.15;;;28.80;67.80;;;;;;5051213;28;20075;-60
2022/07/30 09:35:20;;;;;;;7.10;2.60;;;29.30;66.40;;;;;;5050681;28;20503;-60
2022/07/30 09:37:46;;;;;;;2.10;2.00;;;29.90;63.10;;;;;;5049571;28;20064;-59
2022/07/30 09:40:17;;;;;;;2.42;2.22;;;30.90;58.90;;;;;;5050482;28;20072;-61
2022/07/30 09:42:43;;;;;;;;;;;32.10;56.10;;;;;;5049469;28;20480;-60
2022/07/30 09:45:13;;;;;;;2.35;1.80;;;32.90;51.30;;;;;;5050702;28;19920;-59
2022/07/30 09:47:40;;;;;;;;;;;33.20;52.10;;;;;;5049954;28;20103;-59
2022/07/30 09:50:15;;;;;;;3.05;1.60;;;33.40;52.60;;;;;;5050714;28;20657;-58
2022/07/30 09:52:43;;;;;;;1.65;1.55;;;33.60;50.10;;;;;;5050263;28;20029;-60
2022/07/30 09:55:10;;;;;;;2.85;1.40;;;33.70;50.10;;;;;;5050331;28;20056;-60
2022/07/30 09:57:56;;;;;;;1.50;1.40;;;33.80;51.00;;;;;;5049830;28;20032;-59
2022/07/30 10:00:24;;;;;;;1.70;1.60;;;34.00;49.60;;;;;;5049891;28;20091;-59
2022/07/30 10:02:51;;;;;;;1.63;1.40;;;33.80;49.00;;;;;;5049709;28;20369;-59
2022/07/30 10:05:20;;;;;;;2.50;1.30;;;33.90;49.60;;;;;;5049181;28;20041;-62
2022/07/30 10:07:53;;;;;;;1.53;1.43;;;34.20;49.20;;;;;;5049589;28;20017;-59
2022/07/30 10:10:21;;;;;;;3.72;1.17;;;34.50;48.40;;;;;;5048682;28;20400;-63
2022/07/30 10:12:51;;;;;;;3.00;1.27;;;34.20;48.00;;;;;;5050601;28;20040;-63
2022/07/30 10:15:20;;;;;;;1.88;1.20;;;34.50;47.50;;;;;;5042447;28;20067;-59
2022/07/30 10:17:47;;;;;;;1.45;1.35;;;34.40;46.60;;;;;;5049985;28;20029;-61
2022/07/30 10:20:13;;;;;;;1.67;1.27;;;33.80;47.50;;;;;;5049453;28;20037;-61
2022/07/30 10:22:40;;;;;;;1.98;1.30;;;33.40;47.80;;;;;;5050556;28;20051;-61
2022/07/30 10:25:07;;;;;;;1.95;1.35;;;33.20;49.10;;;;;;5049640;28;20108;-59
2022/07/30 10:27:33;;;;;;;1.67;1.30;;;33.30;49.50;;;;;;5049684;28;20029;-59
2022/07/30 10:30:00;;;;;;;1.40;1.30;;;33.80;48.20;;;;;;5049484;28;20563;-59
2022/07/30 10:32:26;;;;;;;2.55;1.50;;;34.60;46.70;;;;;;5049771;28;20025;-60
2022/07/30 10:34:52;;;;;;;1.30;1.20;;;34.70;46.10;;;;;;5049840;28;20028;-60
2022/07/30 10:37:19;;;;;;;2.08;1.38;;;35.20;46.60;;;;;;5049667;28;20048;-62
2022/07/30 10:39:57;;;;;;;2.30;1.40;;;36.00;46.10;;;;;;5049428;28;20029;-61
2022/07/30 10:42:35;;;;;;;1.83;1.50;;;35.90;45.00;;;;;;5049225;28;20029;-59
2022/07/30 10:45:23;;;;;;;1.55;1.45;;;35.50;45.70;;;;;;5049523;28;20036;-62
2022/07/30 10:47:51;;;;;;;1.88;1.23;;;35.20;46.40;;;;;;5048749;28;20075;-59
2022/07/30 10:50:21;;;;;;;1.38;1.25;;;35.70;46.40;;;;;;5049695;28;20040;-59
2022/07/30 10:52:50;;;;;;;1.33;1.23;;;35.50;45.90;;;;;;5048729;28;20473;-59
2022/07/30 10:55:39;;;;;;;1.70;1.40;;;35.20;45.60;;;;;;5050219;28;20124;-61
2022/07/30 10:58:11;;;;;;;2.47;1.40;;;34.50;46.90;;;;;;5048553;28;20367;-60
2022/07/30 11:00:51;;;;;;;1.55;1.45;;;34.00;47.90;;;;;;5048514;28;20051;-59
2022/07/30 11:03:25;;;;;;;1.50;1.40;;;34.20;47.80;;;;;;5048242;28;20033;-59
2022/07/30 11:06:12;;;;;;;1.60;1.30;;;33.80;47.40;;;;;;5046605;28;20079;-59
2022/07/30 11:08:39;;;;;;;1.63;1.33;;;32.80;48.30;;;;;;5047507;28;20108;-58
2022/07/30 11:11:27;;;;;;;1.33;1.23;;;31.60;50.10;;;;;;5048971;28;20401;-60
2022/07/30 11:14:01;;;;;;;3.55;1.48;;;30.60;51.90;;;;;;5047310;28;20017;-58
2022/07/30 11:16:32;;;;;;;1.83;1.30;;;29.90;53.70;;;;;;5048459;28;20036;-60
2022/07/30 11:19:05;;;;;;;1.73;1.40;;;29.40;55.20;;;;;;5048089;28;20033;-58
2022/07/30 11:21:31;;;;;;;1.60;1.50;;;29.00;56.10;;;;;;5048522;28;20025;-58
2022/07/30 11:23:58;;;;;;;1.83;1.60;;;28.60;55.80;;;;;;5048058;28;20112;-58
2022/07/30 11:26:45;;;;;;;3.55;1.52;;;28.30;56.90;;;;;;5048511;28;20033;-59
2022/07/30 11:29:37;;;;;;;2.38;1.80;;;27.80;58.00;;;;;;5046633;28;20080;-63
2022/07/30 11:32:23;;;;;;;3.17;1.70;;;27.40;59.50;;;;;;5049198;28;20036;-61
2022/07/30 11:34:49;;;;;;;4.07;1.77;;;27.20;60.60;;;;;;5048797;28;20013;-60
2022/07/30 11:37:16;;;;;;;4.30;1.70;;;27.00;62.00;;;;;;5046369;28;20040;-61
2022/07/30 11:39:56;;;;;;;1.73;1.10;;;26.80;62.60;;;;;;5048195;28;20033;-60
2022/07/30 11:42:30;;;;;;;7.25;1.50;;;26.10;61.20;;;;;;5048044;28;20586;-58
2022/07/30 11:45:14;;;;;;;6.25;1.60;;;25.60;64.30;;;;;;5048292;28;20055;-60
2022/07/30 11:47:51;;;;;;;3.33;1.35;;;24.90;68.60;;;;;;5046779;28;20123;-59
2022/07/30 11:50:28;;;;;;;2.33;1.40;;;24.40;75.60;;;;;;5048678;28;20025;-58
2022/07/30 11:53:02;;;;;;;4.10;1.63;;;24.10;85.30;;;;;;5045695;28;20488;-59
2022/07/30 11:55:37;;;;;;;2.55;1.50;;;23.90;94.20;;;;;;5047714;28;20081;-58
2022/07/30 11:58:06;;;;;;;11.77;1.70;;;23.80;99.90;;;;;;5047747;28;20123;-60
2022/07/30 12:00:46;;;;;;;10.93;2.08;;;23.60;99.90;;;;;;5048642;28;20511;-61
2022/07/30 12:03:16;;;;;;;4.80;2.67;;;23.30;99.90;;;;;;5048719;28;20033;-61
2022/07/30 12:05:43;;;;;;;6.30;2.45;;;22.80;99.90;;;;;;5047954;28;20540;-62
2022/07/30 12:08:10;;;;;;;3.55;2.30;;;22.30;99.90;;;;;;5047559;28;20187;-62
2022/07/30 12:10:37;;;;;;;5.80;2.40;;;21.90;99.90;;;;;;5047849;28;20035;-61
2022/07/30 12:13:14;;;;;;;2.70;2.08;;;21.60;99.90;;;;;;5048368;28;20028;-59
2022/07/30 12:15:45;;;;;;;2.78;2.28;;;21.50;99.90;;;;;;5048192;28;20033;-58
2022/07/30 12:18:12;;;;;;;3.97;2.95;;;21.40;99.90;;;;;;5047304;28;20524;-58
2022/07/30 12:20:41;;;;;;;4.22;2.35;;;21.40;99.90;;;;;;5047286;28;20524;-60
2022/07/30 12:23:11;;;;;;;3.40;2.00;;;21.30;99.90;;;;;;5048308;28;20033;-58
2022/07/30 12:25:41;;;;;;;2.95;2.00;;;21.20;99.90;;;;;;5048218;28;20502;-58
2022/07/30 12:28:10;;;;;;;4.00;2.40;;;21.20;99.90;;;;;;5048348;28;20033;-58
2022/07/30 12:30:40;;;;;;;5.70;3.38;;;21.20;99.90;;;;;;5047692;28;20028;-61
2022/07/30 12:33:06;;;;;;;3.10;2.40;;;21.30;99.90;;;;;;5047015;28;20056;-58
2022/07/30 12:35:49;;;;;;;3.05;2.53;;;21.50;99.90;;;;;;5046758;28;20091;-60
2022/07/30 12:38:16;;;;;;;3.17;2.05;;;21.80;99.90;;;;;;5038318;28;20127;-59
2022/07/30 12:41:01;;;;;;;2.47;2.05;;;21.90;99.90;;;;;;5048664;28;20028;-60
2022/07/30 12:43:45;;;;;;;10.65;2.38;;;21.90;99.90;;;;;;5047409;28;20080;-57
2022/07/30 12:46:36;;;;;;;8.23;2.97;;;21.60;99.90;;;;;;5046372;28;20068;-60
2022/07/30 12:49:04;;;;;;;11.00;3.13;;;20.80;99.90;;;;;;5048059;28;20099;-58